Time;durP1;ratioP1;P1;durP2;ratioP2;P2;SDS_P1;SDS_P2;PMS_P1;PMS_P2;Temp;Humidity;BMP_temperature;BMP_pressure;BME280_temperature;BME280_humidity;BME280_pressure;Samples;Min_cycle;Max_cycle;Signal;HPM_P1;HPM_P2
2024/02/12 00:01:00;;;;;;;1.60;1.20;;;8.80;98.20;;;;;;6139585;23;20409;-80
2024/02/12 00:03:27;;;;;;;1.60;1.20;;;8.80;98.20;;;;;;6153528;23;20863;-78
2024/02/12 00:05:54;;;;;;;1.70;1.30;;;8.70;98.20;;;;;;6139425;23;20539;-79
2024/02/12 00:08:20;;;;;;;1.60;1.20;;;8.70;98.20;;;;;;6153442;23;20429;-79
2024/02/12 00:10:49;;;;;;;1.60;1.20;;;8.70;98.20;;;;;;6155060;23;20475;-78
2024/02/12 00:13:17;;;;;;;1.60;1.30;;;8.60;98.20;;;;;;6112827;23;20524;-80
2024/02/12 00:15:46;;;;;;;1.60;1.20;;;8.60;98.20;;;;;;6153171;23;20463;-80
2024/02/12 00:18:12;;;;;;;1.60;1.33;;;8.50;98.20;;;;;;6111823;23;20429;-80
2024/02/12 00:20:39;;;;;;;1.60;1.20;;;8.50;98.20;;;;;;6152649;23;20412;-80
2024/02/12 00:23:06;;;;;;;1.60;1.20;;;8.50;98.20;;;;;;6136017;23;20456;-80
2024/02/12 00:25:33;;;;;;;1.60;1.20;;;8.60;98.20;;;;;;6153404;23;20448;-79
2024/02/12 00:28:00;;;;;;;1.60;1.20;;;8.60;98.20;;;;;;6136335;23;20454;-80
2024/02/12 00:30:26;;;;;;;1.60;1.30;;;8.60;98.20;;;;;;6152628;23;20965;-79
2024/02/12 00:32:55;;;;;;;1.60;1.20;;;8.60;98.20;;;;;;6135751;23;20452;-80
2024/02/12 00:35:25;;;;;;;1.70;1.30;;;8.60;98.20;;;;;;6152772;23;20416;-79
2024/02/12 00:37:52;;;;;;;1.60;1.20;;;8.70;98.20;;;;;;6136087;23;20455;-80
2024/02/12 00:40:19;;;;;;;1.60;1.20;;;8.70;98.20;;;;;;6152937;23;20455;-80
2024/02/12 00:42:46;;;;;;;1.60;1.20;;;8.70;98.20;;;;;;6137191;23;20490;-79
2024/02/12 00:45:12;;;;;;;1.60;1.20;;;8.70;98.20;;;;;;6151940;23;20993;-79
2024/02/12 00:47:40;;;;;;;1.60;1.20;;;8.70;98.20;;;;;;6136354;23;20453;-80
2024/02/12 00:50:09;;;;;;;1.60;1.20;;;8.70;98.20;;;;;;6152616;23;20456;-80
2024/02/12 00:52:37;;;;;;;1.60;1.20;;;8.70;98.20;;;;;;6135410;23;20459;-80
2024/02/12 00:55:04;;;;;;;1.60;1.13;;;8.80;98.20;;;;;;6151491;23;20757;-80
2024/02/12 00:57:31;;;;;;;1.60;1.20;;;8.80;98.20;;;;;;6136186;23;20504;-79
2024/02/12 00:59:58;;;;;;;1.83;1.50;;;8.80;98.20;;;;;;6151869;23;20416;-80
2024/02/12 01:02:25;;;;;;;1.60;1.23;;;8.80;98.20;;;;;;6136607;23;21120;-79
2024/02/12 01:04:52;;;;;;;1.60;1.40;;;8.80;98.20;;;;;;6151572;23;20444;-80
2024/02/12 01:07:20;;;;;;;1.60;1.20;;;8.80;98.20;;;;;;6136273;23;20448;-80
2024/02/12 01:09:46;;;;;;;1.60;1.10;;;8.80;98.20;;;;;;6151297;23;20421;-80
2024/02/12 01:12:13;;;;;;;1.60;1.30;;;8.80;98.20;;;;;;6135606;23;20459;-79
2024/02/12 01:14:40;;;;;;;1.60;1.10;;;8.80;98.20;;;;;;6151536;23;20416;-79
2024/02/12 01:17:07;;;;;;;1.60;1.30;;;8.80;98.20;;;;;;6136930;23;20455;-80
2024/02/12 01:19:36;;;;;;;1.60;1.20;;;8.80;98.20;;;;;;6151989;23;20448;-79
2024/02/12 01:22:03;;;;;;;1.60;1.20;;;8.80;98.20;;;;;;6136184;23;20488;-80
2024/02/12 01:24:31;;;;;;;1.60;1.37;;;8.80;98.20;;;;;;6151153;23;21122;-80
2024/02/12 01:26:59;;;;;;;1.60;1.20;;;8.80;98.20;;;;;;6135979;23;20449;-80
2024/02/12 01:29:27;;;;;;;1.60;1.20;;;8.80;98.20;;;;;;6151561;23;20428;-79
2024/02/12 01:31:54;;;;;;;1.60;1.10;;;8.80;98.20;;;;;;6136253;23;20560;-80
2024/02/12 01:34:21;;;;;;;1.60;1.20;;;8.80;98.20;;;;;;6151423;23;20480;-79
2024/02/12 01:36:48;;;;;;;1.60;1.20;;;8.80;98.20;;;;;;6136015;23;20536;-79
2024/02/12 01:39:16;;;;;;;1.60;1.17;;;8.80;98.20;;;;;;6151088;23;20423;-79
2024/02/12 01:41:44;;;;;;;1.60;1.30;;;8.80;98.20;;;;;;6136665;23;21027;-80
2024/02/12 01:44:13;;;;;;;1.60;1.30;;;8.80;98.20;;;;;;6150624;23;20417;-80
2024/02/12 01:46:40;;;;;;;1.60;1.20;;;8.80;98.20;;;;;;6136845;23;20436;-79
2024/02/12 01:49:10;;;;;;;1.60;1.30;;;8.80;98.20;;;;;;6151475;23;20909;-79
2024/02/12 01:51:37;;;;;;;1.60;1.10;;;8.80;98.20;;;;;;6137114;23;20511;-80
2024/02/12 01:54:07;;;;;;;1.60;1.20;;;8.80;98.20;;;;;;6151590;23;20975;-79
2024/02/12 01:56:35;;;;;;;1.60;1.17;;;8.80;98.20;;;;;;6136866;23;20532;-79
2024/02/12 01:59:06;;;;;;;1.60;1.23;;;8.80;98.20;;;;;;6151482;23;20817;-80
2024/02/12 02:01:33;;;;;;;1.60;1.20;;;8.80;98.20;;;;;;6135056;23;20453;-80
2024/02/12 02:04:01;;;;;;;1.60;1.10;;;8.80;98.20;;;;;;6149612;23;20507;-80
2024/02/12 02:06:29;;;;;;;1.60;1.20;;;8.80;98.20;;;;;;6136341;23;20504;-79
2024/02/12 02:08:56;;;;;;;1.60;1.20;;;8.90;98.20;;;;;;6150457;23;20421;-80
2024/02/12 02:11:26;;;;;;;1.60;1.20;;;8.90;98.20;;;;;;6136609;23;20466;-80
2024/02/12 02:13:54;;;;;;;1.60;1.20;;;8.90;98.20;;;;;;6151242;23;20429;-80
2024/02/12 02:16:22;;;;;;;1.60;1.10;;;8.90;98.20;;;;;;6137415;23;20509;-79
2024/02/12 02:18:50;;;;;;;1.60;1.30;;;8.90;98.20;;;;;;6151279;23;20503;-79
2024/02/12 02:21:18;;;;;;;1.60;1.20;;;8.90;98.20;;;;;;6136260;23;21163;-80
2024/02/12 02:23:45;;;;;;;1.60;1.20;;;8.90;98.20;;;;;;6150645;23;20417;-80
2024/02/12 02:26:13;;;;;;;1.60;1.20;;;8.90;98.20;;;;;;6136235;23;20516;-79
2024/02/12 02:28:40;;;;;;;1.60;1.10;;;8.90;98.20;;;;;;6148410;23;20945;-80
2024/02/12 02:31:07;;;;;;;1.60;1.10;;;8.90;98.20;;;;;;6134747;23;20437;-80
2024/02/12 02:33:35;;;;;;;1.60;1.30;;;8.90;98.20;;;;;;6147407;23;20408;-80
2024/02/12 02:36:02;;;;;;;1.60;1.10;;;8.90;98.20;;;;;;6134624;23;20468;-80
2024/02/12 02:38:29;;;;;;;1.60;1.33;;;8.90;98.20;;;;;;6159452;23;20425;-79
2024/02/12 02:40:56;;;;;;;1.60;1.20;;;8.90;98.20;;;;;;6135323;23;20421;-80
2024/02/12 02:43:24;;;;;;;1.60;1.20;;;8.90;98.20;;;;;;6141311;23;20447;-80
2024/02/12 02:45:52;;;;;;;1.60;1.20;;;8.90;98.20;;;;;;6134647;23;20452;-79
2024/02/12 02:48:19;;;;;;;1.60;1.20;;;8.90;98.20;;;;;;6148066;23;20898;-80
2024/02/12 02:50:46;;;;;;;1.60;1.10;;;8.90;98.20;;;;;;6149387;23;20417;-80
2024/02/12 02:53:13;;;;;;;1.70;1.40;;;8.90;98.20;;;;;;6107384;23;20433;-79
2024/02/12 02:55:40;;;;;;;1.60;1.20;;;8.90;98.20;;;;;;6149317;23;20421;-80
2024/02/12 02:58:08;;;;;;;1.60;1.10;;;8.90;98.20;;;;;;6133155;23;20459;-80
2024/02/12 03:00:36;;;;;;;1.60;1.20;;;8.90;98.20;;;;;;6149099;23;20511;-79
2024/02/12 03:03:03;;;;;;;1.60;1.10;;;8.90;98.20;;;;;;6131135;23;20491;-80
2024/02/12 03:05:30;;;;;;;1.60;1.20;;;8.90;98.20;;;;;;6148982;23;20484;-80
2024/02/12 03:07:58;;;;;;;1.60;1.40;;;8.90;98.20;;;;;;6133322;23;20449;-80
2024/02/12 03:10:25;;;;;;;1.60;1.20;;;8.90;98.20;;;;;;6149261;23;20421;-80
2024/02/12 03:12:53;;;;;;;1.60;1.33;;;8.80;98.20;;;;;;6133362;23;20456;-80
2024/02/12 03:15:20;;;;;;;1.60;1.40;;;8.80;98.20;;;;;;6147801;23;20417;-79
2024/02/12 03:17:48;;;;;;;1.60;1.13;;;8.80;98.20;;;;;;6133460;23;20930;-79
2024/02/12 03:20:16;;;;;;;1.60;1.30;;;8.80;98.20;;;;;;6149514;23;20421;-79
2024/02/12 03:22:43;;;;;;;1.60;1.20;;;8.80;98.20;;;;;;6132340;23;20461;-80
2024/02/12 03:25:11;;;;;;;1.60;1.20;;;8.80;98.20;;;;;;6160347;23;20853;-79
2024/02/12 03:27:39;;;;;;;1.63;1.40;;;8.80;98.20;;;;;;6133175;23;20476;-79
2024/02/12 03:30:09;;;;;;;1.60;1.10;;;8.80;98.20;;;;;;6149487;23;20832;-80
2024/02/12 03:32:37;;;;;;;1.60;1.23;;;8.80;98.20;;;;;;6134878;23;20453;-79
2024/02/12 03:35:06;;;;;;;1.60;1.20;;;8.80;98.20;;;;;;6149428;23;20452;-79
2024/02/12 03:37:34;;;;;;;1.60;1.23;;;8.80;98.20;;;;;;6134444;23;20528;-79
2024/02/12 03:40:00;;;;;;;1.60;1.20;;;8.80;98.20;;;;;;6150412;23;21085;-80
2024/02/12 03:42:27;;;;;;;1.60;1.20;;;8.70;98.20;;;;;;6133268;23;20531;-80
2024/02/12 03:44:55;;;;;;;1.60;1.27;;;8.70;98.20;;;;;;6148125;23;20500;-79
2024/02/12 03:47:27;;;;;;;1.60;1.20;;;8.70;98.20;;;;;;6133790;23;20448;-78
2024/02/12 04:00:51;;;;;;;1.60;1.20;;;8.60;98.20;;;;;;6135191;23;20392;-79
2024/02/12 04:03:19;;;;;;;1.60;1.20;;;8.60;98.20;;;;;;6145358;23;20463;-79
2024/02/12 04:05:46;;;;;;;1.60;1.20;;;8.70;98.20;;;;;;6148337;23;20452;-80
2024/02/12 04:08:16;;;;;;;1.60;1.20;;;8.70;98.20;;;;;;6108376;23;20428;-79
2024/02/12 04:10:43;;;;;;;1.60;1.20;;;8.70;98.20;;;;;;6150012;23;20411;-80
2024/02/12 04:13:10;;;;;;;1.60;1.20;;;8.70;98.20;;;;;;6130439;23;20476;-79
2024/02/12 04:15:40;;;;;;;1.70;1.40;;;8.70;98.20;;;;;;6149474;23;20439;-79
2024/02/12 04:18:08;;;;;;;1.60;1.27;;;8.60;98.20;;;;;;6132620;23;20456;-80
2024/02/12 04:20:36;;;;;;;1.60;1.20;;;8.60;98.20;;;;;;6149149;23;20421;-79
2024/02/12 04:23:04;;;;;;;1.60;1.20;;;8.60;98.20;;;;;;6132806;23;20586;-80
2024/02/12 04:25:32;;;;;;;1.60;1.20;;;8.60;98.20;;;;;;6149151;23;20451;-79
2024/02/12 04:28:00;;;;;;;1.60;1.20;;;8.60;98.20;;;;;;6134035;23;20444;-80
2024/02/12 04:30:29;;;;;;;1.70;1.47;;;8.60;98.20;;;;;;6151903;23;20507;-79
2024/02/12 04:32:58;;;;;;;2.27;2.07;;;8.60;98.20;;;;;;6134862;23;20453;-80
2024/02/12 04:35:26;;;;;;;1.60;1.30;;;8.60;98.20;;;;;;6151305;23;20918;-79
2024/02/12 04:37:54;;;;;;;1.60;1.23;;;8.60;98.20;;;;;;6136172;23;21248;-80
2024/02/12 04:40:23;;;;;;;1.60;1.20;;;8.70;98.20;;;;;;6153392;23;20416;-79
2024/02/12 04:42:52;;;;;;;1.60;1.20;;;8.70;98.20;;;;;;6132325;23;20453;-80
2024/02/12 04:45:20;;;;;;;2.47;2.27;;;8.70;98.20;;;;;;6159197;23;20423;-79
2024/02/12 04:47:47;;;;;;;1.60;1.20;;;8.70;98.20;;;;;;6133740;23;20449;-79
2024/02/12 04:50:14;;;;;;;1.60;1.13;;;8.70;98.20;;;;;;6151125;23;20452;-79
2024/02/12 04:52:41;;;;;;;1.60;1.20;;;8.70;98.20;;;;;;6136650;23;20459;-79
2024/02/12 04:55:10;;;;;;;1.60;1.20;;;8.70;98.20;;;;;;6151594;23;20425;-79
2024/02/12 04:57:37;;;;;;;1.60;1.20;;;8.70;98.20;;;;;;6135244;23;20449;-79
2024/02/12 05:00:10;;;;;;;1.60;1.30;;;8.70;98.20;;;;;;6151361;23;20423;-79
2024/02/12 05:02:37;;;;;;;1.60;1.30;;;8.70;98.20;;;;;;6134680;23;20479;-79
2024/02/12 05:05:05;;;;;;;1.60;1.20;;;8.70;98.20;;;;;;6151345;23;20424;-80
2024/02/12 05:07:32;;;;;;;1.60;1.10;;;8.60;98.20;;;;;;6135902;23;20605;-80
2024/02/12 05:09:59;;;;;;;1.60;1.20;;;8.60;98.20;;;;;;6151734;23;20491;-79
2024/02/12 05:12:26;;;;;;;1.60;1.20;;;8.60;98.20;;;;;;6134231;23;20722;-79
2024/02/12 05:14:53;;;;;;;1.60;1.20;;;8.60;98.20;;;;;;6149845;23;20420;-80
2024/02/12 05:17:31;;;;;;;1.60;1.20;;;8.50;98.20;;;;;;6138116;23;20855;-79
2024/02/12 05:22:43;;;;;;;1.60;1.20;;;8.50;98.20;;;;;;6134596;23;20459;-80
2024/02/12 05:25:09;;;;;;;1.60;1.30;;;8.50;98.20;;;;;;6150308;23;20504;-80
2024/02/12 05:27:36;;;;;;;1.60;1.17;;;8.50;98.20;;;;;;6134799;23;20449;-79
2024/02/12 05:30:04;;;;;;;1.60;1.20;;;8.50;98.20;;;;;;6150429;23;20512;-80
2024/02/12 05:32:32;;;;;;;1.60;1.30;;;8.50;98.20;;;;;;6133653;23;20515;-79
2024/02/12 05:34:59;;;;;;;1.97;1.63;;;8.40;98.20;;;;;;6149681;23;20508;-79
2024/02/12 05:37:26;;;;;;;1.60;1.20;;;8.50;98.20;;;;;;6135033;23;20452;-79
2024/02/12 05:39:53;;;;;;;1.60;1.23;;;8.50;98.20;;;;;;6150444;23;20456;-80
2024/02/12 05:42:20;;;;;;;1.60;1.20;;;8.50;98.20;;;;;;6132013;23;20452;-79
2024/02/12 05:44:46;;;;;;;1.60;1.23;;;8.50;98.20;;;;;;6149542;23;20427;-80
2024/02/12 05:47:13;;;;;;;1.60;1.10;;;8.50;98.20;;;;;;6136172;23;20448;-79
2024/02/12 05:49:44;;;;;;;1.60;1.23;;;8.50;98.20;;;;;;6150621;23;20491;-79
2024/02/12 05:52:12;;;;;;;1.60;1.30;;;8.50;98.20;;;;;;6133744;23;20461;-80
2024/02/12 05:54:38;;;;;;;1.70;1.40;;;8.50;98.20;;;;;;6160703;23;20455;-80
2024/02/12 05:57:06;;;;;;;1.60;1.20;;;8.50;98.20;;;;;;6136090;23;20455;-80
2024/02/12 05:59:33;;;;;;;1.60;1.30;;;8.40;98.20;;;;;;6151305;23;20511;-80
2024/02/12 06:02:02;;;;;;;1.60;1.30;;;8.40;98.20;;;;;;6134786;23;20453;-80
2024/02/12 06:04:29;;;;;;;1.60;1.30;;;8.40;98.20;;;;;;6150209;23;20417;-79
2024/02/12 06:06:58;;;;;;;1.60;1.20;;;8.30;98.20;;;;;;6136260;23;20455;-80
2024/02/12 06:09:25;;;;;;;1.60;1.30;;;8.30;98.20;;;;;;6151274;23;20437;-79
2024/02/12 06:11:53;;;;;;;1.60;1.20;;;8.20;98.20;;;;;;6135350;23;20459;-80
2024/02/12 06:14:20;;;;;;;1.60;1.30;;;8.10;98.20;;;;;;6150019;23;20751;-79
2024/02/12 06:16:47;;;;;;;1.60;1.20;;;8.00;98.20;;;;;;6136065;23;20449;-80
2024/02/12 06:19:14;;;;;;;1.60;1.20;;;8.00;98.20;;;;;;6150794;23;20427;-80
2024/02/12 06:21:44;;;;;;;1.60;1.20;;;8.00;98.20;;;;;;6135996;23;20453;-79
2024/02/12 06:24:12;;;;;;;1.60;1.30;;;7.90;98.20;;;;;;6149534;23;20507;-80
2024/02/12 06:26:39;;;;;;;1.87;1.63;;;7.90;98.20;;;;;;6136565;23;20537;-80
2024/02/12 06:29:07;;;;;;;1.60;1.20;;;7.90;98.20;;;;;;6150540;23;20421;-80
2024/02/12 06:31:41;;;;;;;1.60;1.20;;;7.90;98.20;;;;;;6135623;23;20460;-80
2024/02/12 06:34:07;;;;;;;1.67;1.20;;;7.90;98.20;;;;;;6148672;23;20487;-79
2024/02/12 06:36:34;;;;;;;1.67;1.30;;;7.90;98.20;;;;;;6133333;23;20800;-79
2024/02/12 06:39:01;;;;;;;1.63;1.30;;;7.80;98.20;;;;;;6149577;23;20417;-79
2024/02/12 06:41:30;;;;;;;1.60;1.20;;;7.80;98.20;;;;;;6134849;23;20480;-79
2024/02/12 06:43:58;;;;;;;1.70;1.30;;;7.80;98.20;;;;;;6147830;23;20417;-79
2024/02/12 06:46:25;;;;;;;1.63;1.20;;;7.80;98.20;;;;;;6134026;23;20879;-79
2024/02/12 06:48:51;;;;;;;1.60;1.20;;;7.80;98.20;;;;;;6149272;23;20572;-79
2024/02/12 06:51:18;;;;;;;1.67;1.33;;;7.90;98.20;;;;;;6134685;23;20445;-79
2024/02/12 06:53:45;;;;;;;1.60;1.30;;;7.90;98.20;;;;;;6146648;23;20427;-79
2024/02/12 06:56:12;;;;;;;1.70;1.33;;;7.90;98.20;;;;;;6134187;23;20528;-79
2024/02/12 06:58:40;;;;;;;1.60;1.20;;;7.90;98.20;;;;;;6147313;23;20427;-79
2024/02/12 07:01:07;;;;;;;1.60;1.30;;;7.90;98.20;;;;;;6133601;23;20519;-79
2024/02/12 07:03:33;;;;;;;1.60;1.30;;;7.90;98.20;;;;;;6148951;23;20421;-79
2024/02/12 07:06:00;;;;;;;1.90;1.70;;;7.90;98.20;;;;;;6134938;23;20425;-79
2024/02/12 07:08:27;;;;;;;1.60;1.20;;;7.90;98.20;;;;;;6148069;23;20420;-79
2024/02/12 07:10:54;;;;;;;1.60;1.30;;;7.90;98.20;;;;;;6134535;23;20416;-79
2024/02/12 07:13:21;;;;;;;1.60;1.20;;;8.00;98.20;;;;;;6146427;23;20440;-79
2024/02/12 07:15:49;;;;;;;1.60;1.27;;;8.00;98.20;;;;;;6153427;23;20520;-79
2024/02/12 07:18:15;;;;;;;1.60;1.30;;;8.00;98.20;;;;;;6148241;23;20432;-79
2024/02/12 07:20:42;;;;;;;1.60;1.20;;;8.00;98.20;;;;;;6149639;23;20421;-79
2024/02/12 07:23:09;;;;;;;1.63;1.30;;;8.00;98.20;;;;;;6132459;23;20801;-79
2024/02/12 07:25:37;;;;;;;1.60;1.20;;;8.00;98.20;;;;;;6150530;23;20504;-79
2024/02/12 07:28:04;;;;;;;1.60;1.30;;;8.00;98.20;;;;;;6132478;23;20480;-80
2024/02/12 07:30:31;;;;;;;1.60;1.20;;;8.00;98.20;;;;;;6149665;23;20611;-79
2024/02/12 07:33:02;;;;;;;1.60;1.20;;;8.00;98.20;;;;;;6131662;23;20456;-79
2024/02/12 07:35:30;;;;;;;1.70;1.30;;;8.00;98.20;;;;;;6148998;23;20412;-79
2024/02/12 07:37:58;;;;;;;1.60;1.30;;;8.00;98.20;;;;;;6132766;23;20445;-79
2024/02/12 07:40:25;;;;;;;1.60;1.20;;;8.10;98.20;;;;;;6148838;23;20424;-79
2024/02/12 07:42:52;;;;;;;1.60;1.20;;;8.10;98.20;;;;;;6130582;23;20539;-79
2024/02/12 07:45:19;;;;;;;1.60;1.30;;;8.10;98.20;;;;;;6148912;23;20436;-78
2024/02/12 07:47:46;;;;;;;1.60;1.10;;;8.10;98.20;;;;;;6132771;23;20444;-79
2024/02/12 07:50:14;;;;;;;1.60;1.20;;;8.10;98.20;;;;;;6148508;23;20421;-79
2024/02/12 07:52:42;;;;;;;1.63;1.30;;;8.20;98.20;;;;;;6131889;23;20965;-79
2024/02/12 07:55:10;;;;;;;1.60;1.20;;;8.20;98.20;;;;;;6146760;23;21195;-79
2024/02/12 07:57:38;;;;;;;1.70;1.33;;;8.20;98.20;;;;;;6131707;23;20444;-79
2024/02/12 08:00:07;;;;;;;1.63;1.20;;;8.20;98.20;;;;;;6147773;23;20421;-79
2024/02/12 08:02:34;;;;;;;1.60;1.30;;;8.30;98.20;;;;;;6130741;23;20776;-78
2024/02/12 08:05:01;;;;;;;1.60;1.17;;;8.30;98.20;;;;;;6148258;23;20425;-79
2024/02/12 08:07:29;;;;;;;1.60;1.20;;;8.30;98.20;;;;;;6133356;23;20445;-79
2024/02/12 08:09:56;;;;;;;1.60;1.30;;;8.30;98.20;;;;;;6149195;23;20420;-79
2024/02/12 08:12:23;;;;;;;1.60;1.20;;;8.40;98.20;;;;;;6133042;23;20452;-79
2024/02/12 08:14:51;;;;;;;1.60;1.30;;;8.40;98.20;;;;;;6147853;23;20429;-79
2024/02/12 08:17:18;;;;;;;1.60;1.20;;;8.40;98.20;;;;;;6133940;23;20451;-78
2024/02/12 08:19:45;;;;;;;1.63;1.30;;;8.40;98.20;;;;;;6149330;23;20758;-78
2024/02/12 08:22:13;;;;;;;3.17;2.90;;;8.40;98.20;;;;;;6133292;23;20544;-79
2024/02/12 08:24:42;;;;;;;1.60;1.20;;;8.40;98.20;;;;;;6147860;23;20423;-79
2024/02/12 08:27:09;;;;;;;1.60;1.30;;;8.40;98.20;;;;;;6133750;23;20445;-79
2024/02/12 08:29:36;;;;;;;1.70;1.30;;;8.40;98.20;;;;;;6149347;23;20496;-78
2024/02/12 08:32:04;;;;;;;1.60;1.30;;;8.40;98.20;;;;;;6133939;23;20452;-79
2024/02/12 08:34:30;;;;;;;1.60;1.20;;;8.40;98.20;;;;;;6148244;23;20904;-78
2024/02/12 08:36:57;;;;;;;1.60;1.20;;;8.50;98.20;;;;;;6133723;23;20472;-78
2024/02/12 08:39:24;;;;;;;1.60;1.20;;;8.50;98.20;;;;;;6148881;23;21047;-78
2024/02/12 08:41:52;;;;;;;1.60;1.20;;;8.50;98.20;;;;;;6133864;23;20535;-78
2024/02/12 08:44:19;;;;;;;1.60;1.20;;;8.60;98.20;;;;;;6147447;23;20450;-78
2024/02/12 08:46:46;;;;;;;1.60;1.20;;;8.60;98.20;;;;;;6133781;23;20445;-78
2024/02/12 08:49:14;;;;;;;1.60;1.10;;;8.70;98.20;;;;;;6158830;23;20416;-79
2024/02/12 08:51:41;;;;;;;1.60;1.20;;;8.80;98.20;;;;;;6135191;23;20453;-79
2024/02/12 08:54:07;;;;;;;1.60;1.20;;;8.80;98.20;;;;;;6148967;23;20493;-79
2024/02/12 08:56:36;;;;;;;1.60;1.20;;;8.90;98.20;;;;;;6137193;23;20524;-79
2024/02/12 08:59:06;;;;;;;1.60;1.10;;;9.00;98.20;;;;;;6151504;23;20467;-79
2024/02/12 09:01:34;;;;;;;1.60;1.17;;;9.10;98.20;;;;;;6136880;23;20453;-79
2024/02/12 09:04:01;;;;;;;1.60;1.20;;;9.20;98.20;;;;;;6152144;23;20421;-79
2024/02/12 09:06:28;;;;;;;1.60;1.20;;;9.30;98.20;;;;;;6138322;23;20747;-78
2024/02/12 09:08:55;;;;;;;1.60;1.20;;;9.40;98.20;;;;;;6152721;23;20421;-79
2024/02/12 09:11:22;;;;;;;1.60;1.10;;;9.40;98.20;;;;;;6139710;23;20475;-79
2024/02/12 09:13:50;;;;;;;1.60;1.10;;;9.50;98.20;;;;;;6152484;23;20427;-78
2024/02/12 09:16:19;;;;;;;1.60;1.10;;;9.50;98.20;;;;;;6139518;23;20455;-79
2024/02/12 09:18:46;;;;;;;1.60;1.10;;;9.50;98.20;;;;;;6152962;23;20910;-78
2024/02/12 09:21:13;;;;;;;1.60;1.10;;;9.60;98.20;;;;;;6135295;23;21008;-79
2024/02/12 09:23:40;;;;;;;1.60;1.20;;;9.60;98.20;;;;;;6148418;23;20772;-79
2024/02/12 09:26:07;;;;;;;1.60;1.10;;;9.60;98.20;;;;;;6134114;23;20428;-79
2024/02/12 09:28:34;;;;;;;1.60;1.10;;;9.50;98.20;;;;;;6148560;23;20497;-79
2024/02/12 09:31:00;;;;;;;1.60;1.13;;;9.60;98.20;;;;;;6134450;23;20515;-79
2024/02/12 09:33:30;;;;;;;1.60;1.27;;;9.60;98.20;;;;;;6148226;23;20471;-79
2024/02/12 09:35:58;;;;;;;1.60;1.10;;;9.60;98.20;;;;;;6136166;23;20981;-79
2024/02/12 09:38:25;;;;;;;1.60;1.10;;;9.60;98.20;;;;;;6150112;23;20413;-78
2024/02/12 09:40:53;;;;;;;1.60;1.17;;;9.60;98.20;;;;;;6136701;23;20416;-79
2024/02/12 09:43:22;;;;;;;1.60;1.10;;;9.60;98.20;;;;;;6148011;23;20937;-78
2024/02/12 09:45:51;;;;;;;1.60;1.20;;;9.60;98.20;;;;;;6145231;23;20548;-77
2024/02/12 09:48:20;;;;;;;1.60;1.10;;;9.60;98.20;;;;;;6149095;23;20481;-78
2024/02/12 09:50:51;;;;;;;1.60;1.10;;;9.60;98.20;;;;;;6145013;23;21087;-79
2024/02/12 09:53:19;;;;;;;1.60;1.10;;;9.70;98.20;;;;;;6147524;23;20540;-79
2024/02/12 09:55:46;;;;;;;1.60;1.20;;;9.70;98.20;;;;;;6150968;23;20444;-78
2024/02/12 09:58:15;;;;;;;1.60;1.30;;;9.70;98.20;;;;;;6111278;23;20443;-79
2024/02/12 10:00:42;;;;;;;1.60;1.30;;;9.70;98.20;;;;;;6153956;23;20436;-78
2024/02/12 10:03:11;;;;;;;1.60;1.10;;;9.70;98.20;;;;;;6134989;23;20476;-79
2024/02/12 10:05:40;;;;;;;1.60;1.10;;;9.80;98.20;;;;;;6161015;23;20432;-77
2024/02/12 10:08:18;;;;;;;1.60;1.20;;;9.80;98.20;;;;;;6133588;23;20933;-77
2024/02/12 10:10:45;;;;;;;1.60;1.23;;;9.80;98.20;;;;;;6153566;23;20499;-78
2024/02/12 10:13:12;;;;;;;1.60;1.10;;;9.90;98.20;;;;;;6110012;23;20433;-79
2024/02/12 10:15:40;;;;;;;1.60;1.10;;;10.00;98.20;;;;;;6151882;23;20417;-78
2024/02/12 10:18:10;;;;;;;1.60;1.10;;;10.10;98.20;;;;;;6134445;23;20441;-79
2024/02/12 10:20:39;;;;;;;1.60;1.10;;;10.30;98.20;;;;;;6150245;23;20413;-79
2024/02/12 10:23:08;;;;;;;1.60;1.10;;;10.40;98.20;;;;;;6132038;23;20475;-79
2024/02/12 10:25:42;;;;;;;1.60;1.20;;;10.60;98.20;;;;;;6149148;23;20421;-78
2024/02/12 10:28:09;;;;;;;1.60;1.10;;;10.70;98.20;;;;;;6132989;23;20451;-78
2024/02/12 10:30:36;;;;;;;1.60;1.10;;;10.80;98.20;;;;;;6149010;23;20507;-79
2024/02/12 10:33:05;;;;;;;1.57;1.00;;;11.00;98.20;;;;;;6133131;23;20485;-79
2024/02/12 10:35:36;;;;;;;1.60;1.10;;;11.00;98.20;;;;;;6151476;23;20503;-79
2024/02/12 10:38:07;;;;;;;1.60;1.10;;;11.00;98.20;;;;;;6134389;23;20455;-79
2024/02/12 10:40:44;;;;;;;1.60;1.10;;;11.00;98.20;;;;;;6152056;23;20910;-79
2024/02/12 10:43:16;;;;;;;1.60;1.17;;;10.90;98.20;;;;;;6130585;23;20463;-79
2024/02/12 10:45:48;;;;;;;1.60;1.03;;;10.90;98.20;;;;;;6149785;23;20417;-79
2024/02/12 10:48:16;;;;;;;1.60;1.00;;;10.90;98.20;;;;;;6107262;23;20449;-79
2024/02/12 10:50:47;;;;;;;1.60;1.03;;;10.90;98.20;;;;;;6148991;23;20507;-78
2024/02/12 10:53:16;;;;;;;1.60;1.00;;;10.90;98.20;;;;;;6107479;23;20499;-79
2024/02/12 10:55:44;;;;;;;1.60;1.10;;;10.90;98.20;;;;;;6149879;23;20420;-80
2024/02/12 10:58:13;;;;;;;1.60;1.10;;;10.90;98.20;;;;;;6135271;23;20457;-79
2024/02/12 11:00:40;;;;;;;1.57;1.10;;;10.90;98.20;;;;;;6155403;23;20413;-79
2024/02/12 11:03:07;;;;;;;1.60;1.10;;;10.90;98.20;;;;;;6133216;23;20472;-79
2024/02/12 11:05:37;;;;;;;1.87;1.67;;;10.90;98.20;;;;;;6148831;23;20426;-79
2024/02/12 11:08:08;;;;;;;1.57;1.00;;;11.00;98.20;;;;;;6130436;23;20545;-78
2024/02/12 11:10:36;;;;;;;1.60;1.20;;;11.00;98.20;;;;;;6145940;23;20424;-78
2024/02/12 11:13:05;;;;;;;1.60;1.00;;;11.00;98.20;;;;;;6127276;23;21018;-78
2024/02/12 11:15:33;;;;;;;1.60;1.10;;;11.00;98.20;;;;;;6145215;23;20817;-78
2024/02/12 11:18:11;;;;;;;1.60;1.10;;;11.00;98.20;;;;;;6129954;23;20449;-78
2024/02/12 11:20:47;;;;;;;1.77;1.57;;;11.00;98.20;;;;;;6145408;23;20416;-78
2024/02/12 11:23:24;;;;;;;1.60;1.10;;;11.00;98.20;;;;;;6104949;23;20440;-78
2024/02/12 11:25:51;;;;;;;1.57;1.00;;;11.00;98.20;;;;;;6131375;23;20412;-78
2024/02/12 11:28:20;;;;;;;1.73;1.43;;;11.10;98.20;;;;;;6145857;23;20445;-78
2024/02/12 11:30:49;;;;;;;1.60;1.00;;;11.20;98.20;;;;;;6140136;23;20431;-77
2024/02/12 11:33:16;;;;;;;1.60;1.10;;;11.20;98.20;;;;;;6142864;23;20448;-78
2024/02/12 11:35:43;;;;;;;1.60;1.10;;;11.40;98.20;;;;;;6148286;23;20420;-78
2024/02/12 11:38:13;;;;;;;1.60;1.07;;;11.50;98.20;;;;;;6130949;23;20445;-78
2024/02/12 11:40:40;;;;;;;1.60;1.03;;;11.60;98.20;;;;;;6146892;23;20424;-78
2024/02/12 11:43:08;;;;;;;1.60;1.10;;;11.80;98.20;;;;;;6130231;23;20463;-78
2024/02/12 11:45:35;;;;;;;1.60;1.10;;;12.00;98.20;;;;;;6148714;23;20515;-78
2024/02/12 11:48:08;;;;;;;1.60;1.10;;;12.30;98.20;;;;;;6130743;23;20448;-79
2024/02/12 11:50:35;;;;;;;1.60;1.00;;;12.50;98.20;;;;;;6148630;23;20922;-78
2024/02/12 11:53:02;;;;;;;1.60;1.10;;;12.80;98.20;;;;;;6129738;23;20504;-77
2024/02/12 11:55:29;;;;;;;1.60;1.10;;;12.90;98.20;;;;;;6145342;23;20985;-77
2024/02/12 11:57:56;;;;;;;1.60;1.10;;;13.00;98.20;;;;;;6130679;23;20448;-77
2024/02/12 12:00:23;;;;;;;1.60;1.30;;;13.00;98.20;;;;;;6144825;23;20429;-78
2024/02/12 12:02:51;;;;;;;1.60;1.03;;;13.10;98.20;;;;;;6127763;23;20460;-78
2024/02/12 12:05:24;;;;;;;1.60;1.00;;;13.20;98.20;;;;;;6144461;23;20435;-77
2024/02/12 12:07:52;;;;;;;1.60;1.00;;;13.30;98.20;;;;;;6133293;23;20453;-80
2024/02/12 12:10:22;;;;;;;1.60;1.10;;;13.40;98.20;;;;;;6148562;23;20526;-79
2024/02/12 12:12:50;;;;;;;1.60;1.00;;;13.40;98.20;;;;;;6133783;23;20487;-79
2024/02/12 12:15:18;;;;;;;1.60;1.00;;;13.30;98.20;;;;;;6149043;23;21241;-79
2024/02/12 12:17:46;;;;;;;1.50;1.00;;;13.10;98.20;;;;;;6133110;23;20481;-79
2024/02/12 12:20:15;;;;;;;1.60;1.07;;;12.90;98.20;;;;;;6148981;23;20424;-80
2024/02/12 12:22:44;;;;;;;1.60;1.00;;;12.90;98.20;;;;;;6130668;23;20456;-78
2024/02/12 12:25:11;;;;;;;1.60;1.10;;;12.80;98.20;;;;;;6145308;23;20431;-78
2024/02/12 12:27:38;;;;;;;1.60;1.10;;;12.80;98.20;;;;;;6131482;23;20732;-78
2024/02/12 12:30:13;;;;;;;1.60;1.10;;;12.80;98.20;;;;;;6146350;23;20447;-78
2024/02/12 12:32:41;;;;;;;1.60;1.00;;;12.80;98.20;;;;;;6129898;23;20494;-78
2024/02/12 12:35:08;;;;;;;1.60;1.00;;;12.80;98.20;;;;;;6143777;23;20428;-79
2024/02/12 12:37:35;;;;;;;1.60;1.10;;;12.80;98.20;;;;;;6129879;23;20595;-78
2024/02/12 12:40:08;;;;;;;1.60;1.10;;;12.70;98.20;;;;;;6145002;23;20940;-79
2024/02/12 12:42:36;;;;;;;1.60;1.10;;;12.70;98.20;;;;;;6129835;23;20815;-78
2024/02/12 12:45:03;;;;;;;1.60;1.17;;;12.60;98.20;;;;;;6144370;23;20420;-78
2024/02/12 12:47:31;;;;;;;1.60;1.10;;;12.60;98.20;;;;;;6128400;23;20458;-78
2024/02/12 12:49:58;;;;;;;1.60;1.10;;;12.50;98.20;;;;;;6144412;23;21324;-78
2024/02/12 12:52:25;;;;;;;1.60;1.10;;;12.50;98.20;;;;;;6129291;23;20467;-78
2024/02/12 12:54:52;;;;;;;1.60;1.10;;;12.50;98.20;;;;;;6144864;23;20504;-79
2024/02/12 12:57:22;;;;;;;1.60;1.00;;;12.60;98.20;;;;;;6129598;23;20476;-78
2024/02/12 12:59:48;;;;;;;1.57;1.00;;;12.70;98.20;;;;;;6145731;23;20497;-78
2024/02/12 13:02:15;;;;;;;1.60;1.00;;;12.70;98.20;;;;;;6128525;23;20457;-79
2024/02/12 13:04:44;;;;;;;1.60;1.10;;;12.80;98.20;;;;;;6143999;23;20429;-78
2024/02/12 13:07:12;;;;;;;1.53;1.00;;;12.90;98.20;;;;;;6127246;23;20460;-78
2024/02/12 13:09:39;;;;;;;1.60;1.00;;;12.90;98.20;;;;;;6142543;23;20484;-78
2024/02/12 13:12:06;;;;;;;1.60;1.10;;;12.90;98.20;;;;;;6125753;23;20460;-78